Terminal Aerodrome Forecast
Issued by NWS Buffalo, NY

Home | Current Version | Previous Version | Text Only | Print | Product List | Glossary On
Versions: 1 2 3 4 5 6 7 8 9 10 11 12 13 14 15 16 17 18 19 20 21 22 23 24 25 26 27
000
FTUS41 KBUF 291739
TAFART
TAF
KART 291739Z 2918/3018 24008KT P6SM BKN200
     FM292100 25010KT P6SM BKN150
     FM300100 VRB03KT P6SM BKN120
     FM301400 23008KT P6SM SCT120=

USA.gov is the U.S. government's official web portal to all federal, state and local government web resources and services.